Time;durP1;ratioP1;P1;durP2;ratioP2;P2;SDS_P1;SDS_P2;PMS_P1;PMS_P2;Temp;Humidity;BMP_temperature;BMP_pressure;BME280_temperature;BME280_humidity;BME280_pressure;Samples;Min_cycle;Max_cycle;Signal;HPM_P1;HPM_P2
2022/08/14 00:01:41;;;;;;;16.48;14.73;;;;;;;22.06;51.57;101046.44;5044607;28;20032;-60
2022/08/14 00:04:06;;;;;;;17.27;15.48;;;;;;;21.98;51.45;101048.34;5042487;28;20468;-59
2022/08/14 00:06:31;;;;;;;18.75;15.15;;;;;;;21.90;51.59;101048.53;5024696;28;20060;-59
2022/08/14 00:08:57;;;;;;;17.08;14.90;;;;;;;21.85;51.66;101045.06;5044846;28;20021;-59
2022/08/14 00:11:22;;;;;;;16.20;14.35;;;;;;;21.81;52.18;101040.72;5048353;28;20037;-59
2022/08/14 00:13:47;;;;;;;17.52;15.52;;;;;;;21.80;52.05;101039.00;5036346;28;20104;-60
2022/08/14 00:16:13;;;;;;;19.30;15.95;;;;;;;21.79;51.88;101042.56;5048699;28;20029;-59
2022/08/14 00:18:39;;;;;;;19.88;16.48;;;;;;;21.78;51.47;101036.34;5049779;28;20693;-59
2022/08/14 00:21:05;;;;;;;18.30;16.35;;;;;;;21.72;52.51;101031.19;5051067;28;20536;-59
2022/08/14 00:23:31;;;;;;;18.15;15.82;;;;;;;21.68;51.68;101034.78;5049963;28;20123;-59
2022/08/14 00:25:56;;;;;;;19.50;16.80;;;;;;;21.66;52.35;101026.88;5047079;28;20099;-59
2022/08/14 00:28:25;;;;;;;20.00;16.13;;;;;;;21.64;52.44;101023.38;5047348;28;20048;-60
2022/08/14 00:30:51;;;;;;;;;;;;;;;21.77;50.82;101023.13;5032315;28;20029;-59
2022/08/14 00:33:16;;;;;;;17.13;15.32;;;;;;;21.66;51.68;101016.25;5048166;28;20264;-59
2022/08/14 00:35:41;;;;;;;16.88;15.00;;;;;;;21.62;51.93;101014.56;5045981;28;20399;-59
2022/08/14 00:38:07;;;;;;;16.83;15.02;;;;;;;21.58;52.31;101014.66;5047305;28;20036;-59
2022/08/14 00:40:32;;;;;;;17.90;16.10;;;;;;;21.55;52.25;101010.28;5051223;28;20045;-59
2022/08/14 00:42:57;;;;;;;19.77;15.98;;;;;;;21.53;52.45;101001.50;5050436;28;20036;-58
2022/08/14 00:45:24;;;;;;;18.98;16.25;;;;;;;21.47;52.69;100998.94;5047379;28;20035;-60
2022/08/14 00:47:49;;;;;;;17.85;15.90;;;;;;;21.42;52.42;101001.69;5047468;28;20396;-59
2022/08/14 00:50:17;;;;;;;18.38;16.23;;;;;;;21.37;52.74;100992.94;5047739;28;20036;-59
2022/08/14 00:52:45;;;;;;;18.57;16.60;;;;;;;21.37;52.94;101000.91;5049014;28;20028;-59
2022/08/14 00:55:11;;;;;;;18.38;15.85;;;;;;;21.31;53.44;100993.06;5048821;28;20299;-58
2022/08/14 00:57:37;;;;;;;17.58;15.65;;;;;;;21.28;52.89;100991.34;5028793;28;20430;-59
2022/08/14 01:00:11;;;;;;;19.52;14.93;;;;;;;21.22;52.66;100988.81;5051320;28;20032;-59
2022/08/14 01:02:39;;;;;;;17.00;15.20;;;;;;;21.24;52.68;100979.03;5048673;28;20106;-59
2022/08/14 01:05:06;;;;;;;18.65;16.40;;;;;;;21.10;54.13;100986.38;5048688;28;20029;-59
2022/08/14 01:07:32;;;;;;;17.83;15.98;;;;;;;21.07;54.05;100975.81;5040671;28;20040;-59
2022/08/14 01:10:00;;;;;;;18.10;15.77;;;;;;;21.07;53.27;100974.03;5046716;28;20116;-59
2022/08/14 01:12:27;;;;;;;19.00;16.08;;;;;;;21.05;53.91;100973.19;5044801;28;20036;-59
2022/08/14 01:14:54;;;;;;;18.00;16.10;;;;;;;20.99;53.50;100962.72;5044799;28;20512;-59
2022/08/14 01:17:21;;;;;;;17.90;16.13;;;;;;;20.88;54.06;100968.19;5048648;28;20093;-59
2022/08/14 01:22:32;;;;;;;19.05;16.67;;;;;;;20.75;54.27;100964.00;5039390;28;20052;-59
2022/08/14 01:24:57;;;;;;;19.15;16.20;;;;;;;20.75;53.62;100962.22;5047321;28;20411;-58
2022/08/14 01:27:24;;;;;;;20.63;16.27;;;;;;;20.71;54.05;100951.72;5047389;28;20032;-59
2022/08/14 01:29:53;;;;;;;18.70;16.63;;;;;;;20.74;53.57;100955.22;5048951;28;20028;-59
2022/08/14 01:32:20;;;;;;;21.02;18.58;;;;;;;20.71;53.78;100959.66;5045629;28;20487;-59
2022/08/14 01:34:48;;;;;;;21.00;18.75;;;;;;;20.62;54.39;100964.19;5045649;28;20033;-59
2022/08/14 01:37:13;;;;;;;21.48;18.83;;;;;;;20.63;54.07;100962.41;5040804;28;20032;-59
2022/08/14 01:39:39;;;;;;;22.38;18.75;;;;;;;20.59;54.27;100958.94;5045861;28;20408;-59
2022/08/14 01:42:05;;;;;;;20.15;18.08;;;;;;;20.59;54.25;100963.34;5047923;28;20102;-59
2022/08/14 01:44:30;;;;;;;22.27;19.67;;;;;;;20.55;54.46;100962.56;5047342;28;20504;-59
2022/08/14 01:46:58;;;;;;;21.27;18.63;;;;;;;20.52;53.96;100962.56;5043934;28;20033;-59
2022/08/14 01:49:24;;;;;;;21.75;18.73;;;;;;;20.48;54.43;100959.13;5048872;28;20032;-59
2022/08/14 01:51:55;;;;;;;21.95;18.90;;;;;;;20.49;53.98;100959.97;5048296;28;20028;-59
2022/08/14 01:54:22;;;;;;;24.48;19.23;;;;;;;20.49;53.77;100967.91;5028985;28;20466;-58
2022/08/14 01:56:55;;;;;;;23.65;18.73;;;;;;;20.50;53.42;100961.72;5043656;28;20036;-59
2022/08/14 01:59:22;;;;;;;24.50;19.58;;;;;;;20.48;53.98;100958.25;5048299;28;20275;-59
2022/08/14 02:01:51;;;;;;;22.13;18.77;;;;;;;20.47;54.03;100964.44;5047947;28;20111;-59
2022/08/14 02:04:20;;;;;;;20.20;18.13;;;;;;;20.45;54.38;100960.91;5047403;28;20107;-59
2022/08/14 02:06:49;;;;;;;19.50;17.38;;;;;;;20.40;54.44;100954.84;5047918;28;20020;-60
2022/08/14 02:09:14;;;;;;;20.73;17.47;;;;;;;20.40;54.41;100944.25;5047068;28;20040;-60
2022/08/14 02:11:39;;;;;;;21.55;17.08;;;;;;;20.32;54.58;100947.88;5036485;28;20025;-59
2022/08/14 02:14:07;;;;;;;21.30;17.10;;;;;;;20.27;55.07;100949.72;5042434;28;20019;-59
2022/08/14 02:16:39;;;;;;;19.15;17.17;;;;;;;20.19;54.95;100950.72;5046361;28;20116;-59
2022/08/14 02:19:07;;;;;;;19.42;17.40;;;;;;;20.15;54.91;100945.50;5042182;28;20033;-58
2022/08/14 02:21:34;;;;;;;20.23;16.83;;;;;;;20.13;54.93;100947.28;5040190;28;20028;-59
2022/08/14 02:24:02;;;;;;;20.10;16.80;;;;;;;20.08;54.88;100946.47;5044998;28;20029;-59
2022/08/14 02:26:36;;;;;;;19.05;16.67;;;;;;;20.02;54.93;100943.91;5047327;28;20558;-59
2022/08/14 02:29:08;;;;;;;18.55;16.55;;;;;;;19.98;55.07;100951.00;5043983;28;20037;-59
2022/08/14 02:31:37;;;;;;;19.88;17.42;;;;;;;19.95;55.17;100948.41;5048329;28;20028;-59
2022/08/14 02:34:09;;;;;;;21.65;17.35;;;;;;;19.91;55.82;100949.34;5049091;28;20039;-58
2022/08/14 02:36:34;;;;;;;19.40;16.75;;;;;;;19.87;55.81;100944.13;5045852;28;20116;-59
2022/08/14 02:38:59;;;;;;;18.00;16.10;;;;;;;19.85;55.70;100946.78;5043202;28;20458;-59
2022/08/14 02:41:25;;;;;;;20.50;17.02;;;;;;;19.82;55.62;100945.97;5046772;28;20523;-59
2022/08/14 02:43:50;;;;;;;20.08;16.92;;;;;;;19.75;56.37;100945.13;5046596;28;20079;-60
2022/08/14 02:46:16;;;;;;;18.80;16.80;;;;;;;19.75;56.12;100943.34;5047979;28;20032;-59
2022/08/14 02:48:42;;;;;;;21.95;17.73;;;;;;;19.71;55.83;100936.38;5038255;28;20029;-60
2022/08/14 02:51:11;;;;;;;21.05;18.15;;;;;;;19.71;56.44;100943.41;5044328;28;22499;-60
2022/08/14 02:53:39;;;;;;;21.87;17.97;;;;;;;19.66;56.16;100945.25;5049055;28;20033;-59
2022/08/14 02:56:06;;;;;;;20.23;18.08;;;;;;;19.53;56.32;100939.25;5046613;28;20029;-60
2022/08/14 02:58:37;;;;;;;20.92;18.55;;;;;;;19.42;56.48;100944.63;5045111;28;20041;-59
2022/08/14 03:01:03;;;;;;;20.63;18.30;;;;;;;19.29;57.45;100941.25;5047539;28;20109;-59
2022/08/14 03:03:30;;;;;;;19.63;17.38;;;;;;;19.28;57.08;100931.59;5044680;28;20028;-58
2022/08/14 03:05:55;;;;;;;21.55;19.25;;;;;;;19.16;57.90;100924.69;5045879;28;20029;-59
2022/08/14 03:08:21;;;;;;;24.48;19.13;;;;;;;19.11;58.07;100931.78;5045201;28;20560;-59
2022/08/14 03:10:47;;;;;;;22.50;19.35;;;;;;;18.97;58.71;100921.34;5048543;28;20035;-58
2022/08/14 03:13:12;;;;;;;21.92;19.48;;;;;;;18.93;58.87;100922.28;5046896;28;20047;-59
2022/08/14 03:15:40;;;;;;;22.70;20.35;;;;;;;18.87;58.64;100912.66;5040740;28;20033;-59
2022/08/14 03:18:12;;;;;;;21.67;19.40;;;;;;;18.83;58.66;100916.19;5037457;28;20025;-59
2022/08/14 03:20:37;;;;;;;22.08;19.00;;;;;;;18.74;59.06;100917.13;5035829;28;20044;-59
2022/08/14 03:23:03;;;;;;;22.45;19.55;;;;;;;18.74;58.87;100921.53;5043541;28;20396;-59
2022/08/14 03:25:32;;;;;;;24.70;20.40;;;;;;;18.72;59.25;100929.44;5031249;28;20052;-59
2022/08/14 03:28:02;;;;;;;24.17;20.73;;;;;;;18.67;59.63;100922.47;5045536;28;20066;-59
2022/08/14 03:30:29;;;;;;;21.98;19.48;;;;;;;18.66;59.12;100913.69;5039111;28;20037;-59
2022/08/14 03:32:56;;;;;;;22.58;20.08;;;;;;;18.69;59.39;100912.78;5026236;28;20025;-59
2022/08/14 03:35:21;;;;;;;21.88;19.27;;;;;;;18.68;59.43;100913.66;5032815;28;20033;-59
2022/08/14 03:37:47;;;;;;;20.70;18.48;;;;;;;18.71;58.55;100911.00;5046041;28;20154;-59
2022/08/14 03:40:12;;;;;;;23.58;19.30;;;;;;;18.66;58.89;100907.53;5041196;28;20031;-59
2022/08/14 03:42:38;;;;;;;22.88;19.50;;;;;;;18.63;58.95;100902.28;5044111;28;20021;-59
2022/08/14 03:45:05;;;;;;;23.45;19.70;;;;;;;18.54;59.24;100900.59;5046185;28;20021;-59
2022/08/14 03:47:39;;;;;;;21.70;19.40;;;;;;;18.51;59.59;100898.88;5047627;28;20025;-59
2022/08/14 03:50:09;;;;;;;23.15;18.95;;;;;;;18.49;59.05;100903.25;5045862;28;20028;-59
2022/08/14 03:52:40;;;;;;;24.30;19.60;;;;;;;18.48;59.19;100901.53;5045656;28;20032;-59
2022/08/14 03:55:10;;;;;;;21.88;19.05;;;;;;;18.46;59.64;100905.94;5045318;28;20037;-60
2022/08/14 03:57:36;;;;;;;22.90;19.70;;;;;;;18.35;60.32;100903.38;5039641;28;20024;-59
2022/08/14 04:00:07;;;;;;;22.85;19.75;;;;;;;18.31;60.20;100904.28;5041717;28;20384;-59
2022/08/14 04:02:33;;;;;;;23.23;19.73;;;;;;;18.23;60.59;100903.47;5038135;28;20024;-59
2022/08/14 04:04:58;;;;;;;21.85;19.42;;;;;;;18.19;60.54;100913.19;5050256;28;20031;-59
2022/08/14 04:07:24;;;;;;;22.30;19.05;;;;;;;18.11;61.24;100908.84;5046194;28;20036;-59
2022/08/14 04:09:50;;;;;;;22.73;19.63;;;;;;;18.06;61.43;100912.38;5046014;28;20078;-59
2022/08/14 04:12:18;;;;;;;23.17;19.17;;;;;;;18.07;60.92;100907.97;5044615;28;20025;-60
2022/08/14 04:14:43;;;;;;;23.35;19.88;;;;;;;18.10;60.92;100902.66;5047924;28;20033;-59
2022/08/14 04:17:10;;;;;;;21.05;18.75;;;;;;;18.10;60.82;100902.66;5050968;28;20591;-59
2022/08/14 04:19:36;;;;;;;24.98;19.02;;;;;;;18.11;60.28;100900.94;5041522;28;20171;-59
2022/08/14 04:22:02;;;;;;;21.55;18.80;;;;;;;18.10;60.78;100904.44;5049644;28;20021;-59
2022/08/14 04:24:28;;;;;;;20.70;18.33;;;;;;;18.09;60.09;100908.84;5047052;28;20443;-59
2022/08/14 04:26:54;;;;;;;21.85;19.00;;;;;;;18.08;60.28;100899.19;5031073;28;20438;-59
2022/08/14 04:29:19;;;;;;;22.13;19.67;;;;;;;17.96;60.93;100901.88;5044957;28;20172;-59
2022/08/14 04:31:45;;;;;;;22.65;17.85;;;;;;;17.95;60.89;100901.00;5043671;28;20473;-59
2022/08/14 04:34:11;;;;;;;25.30;18.17;;;;;;;17.99;59.91;100899.25;5050851;28;20032;-59
2022/08/14 04:43:34;;;;;;;21.75;18.27;;;;;;;18.00;60.03;100890.44;5046314;28;20025;-59
2022/08/14 04:44:51;;;;;;;22.13;19.17;;;;;;;17.84;60.85;100873.81;5048823;28;20051;-59
2022/08/14 04:50:02;;;;;;;22.38;18.60;;;;;;;17.79;60.95;100879.09;5048602;28;20031;-58
2022/08/14 04:52:28;;;;;;;24.92;19.67;;;;;;;17.78;61.16;100876.47;5049537;28;20037;-59
2022/08/14 04:54:53;;;;;;;26.50;19.88;;;;;;;17.80;60.72;100872.97;5050793;28;20070;-58
2022/08/14 04:57:18;;;;;;;23.13;20.17;;;;;;;17.79;61.38;100873.84;5048390;28;20281;-59
2022/08/14 04:59:44;;;;;;;24.10;19.75;;;;;;;17.80;61.16;100872.97;5046165;28;20492;-59
2022/08/14 05:02:09;;;;;;;25.17;21.65;;;;;;;17.77;61.16;100865.06;5047510;28;20021;-59
2022/08/14 05:04:35;;;;;;;25.08;21.40;;;;;;;17.75;61.68;100863.31;5050239;28;20056;-59
2022/08/14 05:07:00;;;;;;;26.45;21.23;;;;;;;17.73;62.14;100874.75;5048386;28;20037;-59
2022/08/14 05:09:26;;;;;;;24.75;21.60;;;;;;;17.73;62.96;100860.69;5046681;28;20190;-60
2022/08/14 05:11:51;;;;;;;24.45;20.95;;;;;;;17.75;62.45;100864.19;5047386;28;20130;-59
2022/08/14 05:14:19;;;;;;;24.85;21.05;;;;;;;17.76;62.40;100871.22;5048771;28;20445;-59
2022/08/14 05:16:45;;;;;;;24.55;21.38;;;;;;;17.76;62.51;100868.59;5047943;28;20029;-59
2022/08/14 05:19:12;;;;;;;24.98;21.52;;;;;;;17.79;62.05;100865.94;5037759;28;20048;-59
2022/08/14 05:21:38;;;;;;;27.95;22.90;;;;;;;17.83;62.21;100867.66;5038627;28;20051;-58
2022/08/14 05:24:04;;;;;;;30.08;25.05;;;;;;;17.86;61.75;100867.66;5045271;28;20468;-59
2022/08/14 05:26:29;;;;;;;30.95;26.88;;;;;;;17.86;63.18;100865.00;5045847;28;20125;-59
2022/08/14 05:28:55;;;;;;;29.20;26.02;;;;;;;17.89;63.30;100869.41;5042103;28;20026;-59
2022/08/14 05:31:20;;;;;;;32.97;28.23;;;;;;;17.90;63.27;100863.25;5049553;28;20511;-58
2022/08/14 05:33:46;;;;;;;31.50;26.77;;;;;;;17.93;63.61;100857.09;5023539;28;20035;-59
2022/08/14 05:36:13;;;;;;;34.55;28.20;;;;;;;17.92;63.95;100858.00;5041759;28;20091;-58
2022/08/14 05:38:45;;;;;;;33.30;29.45;;;;;;;17.95;63.68;100860.59;5047371;28;20025;-59
2022/08/14 05:41:16;;;;;;;34.35;29.83;;;;;;;17.96;63.79;100862.34;5033751;28;20068;-59
2022/08/14 05:43:43;;;;;;;34.58;29.10;;;;;;;17.98;63.70;100861.44;5035539;28;20032;-59
2022/08/14 05:46:10;;;;;;;37.13;30.90;;;;;;;17.99;63.10;100868.47;5049612;28;20078;-59
2022/08/14 05:48:36;;;;;;;38.75;31.83;;;;;;;18.01;63.97;100860.56;5049254;28;20029;-58
2022/08/14 05:51:01;;;;;;;37.05;32.17;;;;;;;18.05;64.45;100857.00;5048247;28;20028;-59
2022/08/14 05:53:28;;;;;;;39.67;33.03;;;;;;;18.07;64.24;100855.22;5049362;28;20029;-59
2022/08/14 05:55:54;;;;;;;40.08;33.13;;;;;;;18.07;63.89;100848.22;5048227;28;20021;-59
2022/08/14 05:58:20;;;;;;;37.17;32.05;;;;;;;18.10;64.71;100852.56;5047645;28;20028;-59
2022/08/14 06:00:47;;;;;;;37.50;32.58;;;;;;;18.15;63.58;100852.56;5044784;28;20454;-59
2022/08/14 06:03:15;;;;;;;38.47;31.90;;;;;;;18.17;64.28;100856.91;5047098;28;20032;-59
2022/08/14 06:05:42;;;;;;;37.78;31.58;;;;;;;18.22;63.40;100848.97;5046030;28;20025;-59
2022/08/14 06:08:25;;;;;;;40.75;32.83;;;;;;;18.25;63.51;100854.22;5044362;28;20029;-59
2022/08/14 06:10:53;;;;;;;39.50;32.58;;;;;;;18.28;65.07;100848.94;5047164;28;20024;-59
2022/08/14 06:13:20;;;;;;;39.03;31.27;;;;;;;18.32;65.20;100849.75;5033217;28;20028;-58
2022/08/14 06:15:46;;;;;;;37.95;30.65;;;;;;;18.36;64.86;100851.50;5043663;28;20043;-57
2022/08/14 06:18:11;;;;;;;36.20;30.60;;;;;;;18.39;65.77;100854.09;5045182;28;20037;-58
2022/08/14 06:20:37;;;;;;;37.40;29.35;;;;;;;18.42;64.63;100854.97;5047996;28;20107;-59
2022/08/14 06:23:03;;;;;;;34.30;28.30;;;;;;;18.48;64.97;100851.41;5049421;28;20067;-59
2022/08/14 06:25:30;;;;;;;35.28;29.20;;;;;;;18.53;64.78;100843.44;5045388;28;20552;-58
2022/08/14 06:27:56;;;;;;;34.72;28.65;;;;;;;18.57;65.24;100848.66;5046246;28;20033;-59
2022/08/14 06:30:25;;;;;;;35.92;28.15;;;;;;;18.63;65.68;100844.22;5046097;28;20017;-59
2022/08/14 06:32:50;;;;;;;39.88;29.38;;;;;;;18.67;66.64;100844.19;5039796;28;20045;-59
2022/08/14 06:35:19;;;;;;;37.40;27.85;;;;;;;18.71;65.84;100843.25;5037205;28;20113;-59
2022/08/14 06:37:45;;;;;;;35.70;27.63;;;;;;;18.78;66.19;100844.06;5040467;28;20016;-59
2022/08/14 06:40:12;;;;;;;34.67;26.35;;;;;;;18.84;65.36;100841.38;5043321;28;20426;-60
2022/08/14 06:42:39;;;;;;;34.00;26.73;;;;;;;18.91;66.16;100843.06;5046818;28;20036;-60
2022/08/14 06:45:05;;;;;;;33.47;26.25;;;;;;;18.99;65.77;100837.72;5045283;28;20091;-59
2022/08/14 06:47:38;;;;;;;34.50;26.92;;;;;;;19.07;66.10;100830.59;5040201;28;20086;-60
2022/08/14 06:50:06;;;;;;;33.10;24.67;;;;;;;19.15;65.77;100838.41;5044603;28;20025;-61
2022/08/14 06:52:31;;;;;;;31.97;25.70;;;;;;;19.20;66.33;100835.69;5046789;28;20040;-60
2022/08/14 06:54:57;;;;;;;37.05;26.35;;;;;;;19.27;65.67;100822.38;5040992;28;20055;-60
2022/08/14 06:57:23;;;;;;;35.25;26.10;;;;;;;19.34;66.14;100828.47;5042291;28;20504;-61
2022/08/14 06:59:48;;;;;;;36.72;26.00;;;;;;;19.41;66.23;100827.50;5044517;28;20033;-61
2022/08/14 07:07:42;;;;;;;36.75;24.85;;;;;;;19.68;67.87;100822.72;5045565;28;20048;-61
2022/08/14 07:10:08;;;;;;;32.28;24.45;;;;;;;19.78;66.85;100815.53;5046419;28;20380;-60
2022/08/14 07:12:34;;;;;;;30.58;23.45;;;;;;;19.87;66.49;100814.53;5047755;28;20032;-61
2022/08/14 07:14:59;;;;;;;33.45;23.40;;;;;;;19.96;66.26;100817.94;5043609;28;20375;-61
2022/08/14 07:17:25;;;;;;;28.33;21.77;;;;;;;20.08;64.93;100816.00;5047316;28;20104;-60
2022/08/14 07:19:51;;;;;;;27.65;20.45;;;;;;;20.14;63.97;100822.03;5044524;28;20025;-60
2022/08/14 07:22:17;;;;;;;27.60;20.02;;;;;;;20.24;63.03;100813.97;5048241;28;21013;-60
2022/08/14 07:24:42;;;;;;;26.67;19.83;;;;;;;20.36;63.25;100811.09;5044970;28;20123;-60
2022/08/14 07:27:07;;;;;;;26.58;20.27;;;;;;;20.45;62.99;100810.94;5041452;28;20023;-60
2022/08/14 07:29:32;;;;;;;28.95;20.50;;;;;;;20.52;63.31;100814.34;5040063;28;20409;-60
2022/08/14 07:31:58;;;;;;;24.88;19.15;;;;;;;20.59;62.99;100818.63;5041235;28;20033;-59
2022/08/14 07:34:23;;;;;;;25.60;20.40;;;;;;;20.68;63.26;100814.94;5028393;28;20099;-59
2022/08/14 07:36:48;;;;;;;25.98;19.58;;;;;;;20.76;63.11;100815.69;5047123;28;20037;-60
2022/08/14 07:39:14;;;;;;;25.20;19.13;;;;;;;20.86;63.90;100815.53;5046647;28;20180;-59
2022/08/14 07:41:40;;;;;;;23.17;18.42;;;;;;;20.97;63.55;100814.41;5051697;28;20049;-60
2022/08/14 07:44:05;;;;;;;22.67;18.33;;;;;;;21.06;62.82;100812.47;5050663;28;20033;-60
2022/08/14 07:46:30;;;;;;;23.15;17.75;;;;;;;21.18;62.37;100821.03;5031829;28;20452;-59
2022/08/14 07:48:57;;;;;;;22.65;18.50;;;;;;;21.29;63.00;100810.22;5033250;28;20021;-60
2022/08/14 07:51:22;;;;;;;24.55;17.45;;;;;;;21.40;62.05;100806.47;5047300;28;20465;-60
2022/08/14 07:53:48;;;;;;;23.45;16.88;;;;;;;21.46;61.45;100814.25;5050220;28;20100;-60
2022/08/14 07:56:16;;;;;;;21.50;16.88;;;;;;;21.56;58.90;100807.88;5051064;28;20047;-60
2022/08/14 07:58:41;;;;;;;20.63;16.80;;;;;;;21.61;59.96;100821.03;5045940;28;20064;-60
2022/08/14 08:01:08;;;;;;;19.65;16.10;;;;;;;21.67;59.28;100812.97;5046063;28;20075;-61
2022/08/14 08:03:34;;;;;;;20.15;16.13;;;;;;;21.73;58.78;100811.94;5040353;28;20484;-61
2022/08/14 08:06:01;;;;;;;20.38;16.92;;;;;;;21.81;58.75;100818.81;5045015;28;20036;-61
2022/08/14 08:08:29;;;;;;;20.25;16.10;;;;;;;21.91;58.88;100821.22;5049298;28;20028;-60
2022/08/14 08:10:58;;;;;;;18.52;15.57;;;;;;;21.97;58.96;100814.00;5039096;28;20032;-61
2022/08/14 08:13:25;;;;;;;19.40;15.55;;;;;;;22.02;58.17;100812.09;5019096;28;20040;-61
2022/08/14 08:15:53;;;;;;;17.40;15.50;;;;;;;22.16;58.33;100813.53;5037712;28;20029;-61
2022/08/14 08:18:19;;;;;;;18.38;15.48;;;;;;;22.33;60.12;100806.06;5042817;28;20025;-61
2022/08/14 08:20:47;;;;;;;17.13;14.35;;;;;;;22.40;58.61;100802.34;5038251;28;20052;-61
2022/08/14 08:23:15;;;;;;;15.85;13.50;;;;;;;22.49;57.64;100803.88;5037569;28;20255;-61
2022/08/14 08:25:43;;;;;;;14.85;12.95;;;;;;;22.57;57.55;100798.34;5042304;28;20049;-61
2022/08/14 08:28:10;;;;;;;14.75;13.23;;;;;;;22.65;56.11;100791.06;5042385;28;20078;-61
2022/08/14 08:30:38;;;;;;;14.63;12.80;;;;;;;22.77;56.85;100781.88;5047485;28;20037;-61
2022/08/14 08:33:04;;;;;;;14.10;12.60;;;;;;;22.90;57.09;100785.06;5035033;28;20086;-61
2022/08/14 08:35:33;;;;;;;14.20;12.80;;;;;;;23.00;55.61;100783.88;5041297;28;20060;-61
2022/08/14 08:38:03;;;;;;;14.95;13.50;;;;;;;23.06;56.46;100783.69;5046293;28;20033;-61
2022/08/14 08:40:35;;;;;;;13.85;12.30;;;;;;;23.21;55.39;100795.66;5040282;28;20061;-61
2022/08/14 08:43:17;;;;;;;12.77;11.45;;;;;;;23.32;54.61;100797.13;5046805;28;20116;-61
2022/08/14 08:45:42;;;;;;;13.15;11.82;;;;;;;23.39;53.95;100799.59;5042023;28;20307;-61
2022/08/14 08:48:08;;;;;;;14.32;12.82;;;;;;;23.49;54.65;100789.53;5042169;28;20252;-61
2022/08/14 08:50:36;;;;;;;12.77;11.55;;;;;;;23.64;55.42;100784.63;5050925;28;20357;-61
2022/08/14 08:53:05;;;;;;;12.10;10.90;;;;;;;23.76;55.39;100790.44;5049293;28;20037;-61
2022/08/14 08:55:41;;;;;;;12.65;11.35;;;;;;;23.88;53.59;100791.88;5049399;28;20279;-61
2022/08/14 08:58:09;;;;;;;12.23;11.07;;;;;;;24.06;52.22;100785.06;5040050;28;20182;-61
2022/08/14 09:00:37;;;;;;;12.27;11.18;;;;;;;24.19;51.34;100776.63;5051425;28;20039;-61
2022/08/14 09:03:07;;;;;;;12.00;10.70;;;;;;;24.35;50.98;100777.88;5038274;28;20547;-61
2022/08/14 09:05:34;;;;;;;12.10;10.95;;;;;;;24.43;50.62;100781.16;5050684;28;20056;-61
2022/08/14 09:08:09;;;;;;;11.60;10.57;;;;;;;24.52;52.13;100787.03;5051930;28;20032;-61
2022/08/14 09:10:34;;;;;;;11.05;9.95;;;;;;;24.68;53.03;100777.63;5047238;28;20473;-61
2022/08/14 09:13:01;;;;;;;10.60;9.52;;;;;;;24.78;50.59;100772.81;5050036;28;20496;-61
2022/08/14 09:15:27;;;;;;;11.55;10.45;;;;;;;24.94;49.34;100768.66;5051225;28;20373;-61
2022/08/14 09:17:53;;;;;;;11.43;10.32;;;;;;;25.06;49.65;100767.31;5050591;28;20549;-61
2022/08/14 09:20:18;;;;;;;11.15;9.95;;;;;;;25.15;48.36;100766.97;5050703;28;20033;-61
2022/08/14 09:22:44;;;;;;;10.88;9.63;;;;;;;25.22;48.93;100770.28;5048360;28;20032;-61
2022/08/14 09:25:10;;;;;;;10.57;9.45;;;;;;;25.30;48.18;100765.50;5048740;28;20033;-61
2022/08/14 09:27:36;;;;;;;10.65;9.63;;;;;;;25.42;47.92;100761.53;5049704;28;20040;-61
2022/08/14 09:30:04;;;;;;;12.50;10.57;;;;;;;25.50;47.74;100753.19;5050607;28;20112;-62
2022/08/14 09:32:43;;;;;;;11.32;9.77;;;;;;;25.58;48.04;100753.78;5050078;28;20036;-61
2022/08/14 09:35:19;;;;;;;10.60;9.55;;;;;;;25.68;48.10;100749.78;5048570;28;20025;-62
2022/08/14 09:38:09;;;;;;;10.10;9.15;;;;;;;25.82;48.42;100749.22;5031288;28;20111;-62
2022/08/14 09:40:57;;;;;;;10.77;9.68;;;;;;;25.98;48.28;100752.13;5049839;28;20390;-61
2022/08/14 09:43:38;;;;;;;;;;;;;;;26.12;48.53;100742.69;5050318;28;20516;-61
2022/08/14 09:46:07;;;;;;;10.68;9.68;;;;;;;26.19;47.00;100741.47;5049077;28;19916;-61
2022/08/14 09:48:33;;;;;;;10.85;9.40;;;;;;;26.30;47.75;100736.53;5049221;28;20017;-61
2022/08/14 09:51:00;;;;;;;10.77;9.70;;;;;;;26.42;46.73;100740.47;5049545;28;20040;-62
2022/08/14 09:53:37;;;;;;;11.30;10.30;;;;;;;26.60;45.21;100738.75;5049241;28;20029;-62
2022/08/14 09:56:04;;;;;;;10.95;9.88;;;;;;;26.69;46.36;100734.84;5021439;28;20040;-62
2022/08/14 09:58:42;;;;;;;10.87;9.83;;;;;;;26.83;46.31;100728.88;5045893;28;20013;-62
2022/08/14 10:01:19;;;;;;;10.93;10.03;;;;;;;26.95;44.74;100727.44;5048088;28;20052;-62
2022/08/14 10:03:48;;;;;;;12.98;9.52;;;;;;;27.05;44.77;100726.06;5046690;28;20057;-62
2022/08/14 10:06:16;;;;;;;10.77;9.68;;;;;;;27.12;44.14;100711.44;5049888;28;20032;-62
2022/08/14 10:09:00;;;;;;;9.93;9.02;;;;;;;27.26;44.90;100710.78;5049798;28;20032;-62
2022/08/14 10:11:32;;;;;;;9.73;8.82;;;;;;;27.38;44.89;100704.88;5043481;28;20025;-61
2022/08/14 10:14:15;;;;;;;10.05;9.00;;;;;;;27.39;44.12;100706.59;5038123;28;20036;-62
2022/08/14 10:16:43;;;;;;;9.63;8.73;;;;;;;27.49;44.21;100703.47;5044617;28;20025;-61
2022/08/14 10:19:11;;;;;;;10.15;9.15;;;;;;;27.57;43.38;100703.97;5046298;28;20687;-62
2022/08/14 10:21:39;;;;;;;10.20;9.15;;;;;;;27.72;44.09;100694.28;5032537;28;20025;-62
2022/08/14 10:24:07;;;;;;;9.98;9.07;;;;;;;27.80;42.94;100694.75;5049248;28;20032;-62
2022/08/14 10:26:33;;;;;;;;;;;;;;;27.92;44.30;100694.16;5049265;28;20041;-61
2022/08/14 10:29:09;;;;;;;9.90;9.00;;;;;;;27.97;42.80;100690.34;5042528;28;19982;-62
2022/08/14 10:31:36;;;;;;;10.07;9.18;;;;;;;28.03;42.96;100690.94;5047618;28;20036;-62
2022/08/14 10:34:05;;;;;;;9.77;8.88;;;;;;;28.16;43.71;100685.81;5048865;28;20438;-62
2022/08/14 10:36:31;;;;;;;;;;;;;;;28.27;43.72;100680.75;5043174;28;20033;-62
2022/08/14 10:38:59;;;;;;;10.02;9.13;;;;;;;28.31;42.78;100683.25;5050245;28;20330;-62
2022/08/14 10:41:38;;;;;;;9.95;9.05;;;;;;;28.45;41.62;100665.47;5048531;28;20053;-62
2022/08/14 10:44:15;;;;;;;10.25;9.05;;;;;;;28.56;41.95;100670.28;5049910;28;20112;-62
2022/08/14 10:47:06;;;;;;;10.02;9.02;;;;;;;28.70;41.55;100665.97;5032074;28;20388;-62
2022/08/14 10:49:33;;;;;;;10.50;9.45;;;;;;;28.84;39.44;100660.72;5049916;28;20025;-62
2022/08/14 10:52:08;;;;;;;9.23;8.43;;;;;;;28.93;39.54;100664.69;5044269;28;20017;-62
2022/08/14 10:54:35;;;;;;;9.75;8.65;;;;;;;29.03;39.22;100659.69;5045521;28;20453;-62
2022/08/14 10:57:25;;;;;;;10.82;9.50;;;;;;;29.10;41.10;100666.44;5049128;28;20013;-62
2022/08/14 10:59:57;;;;;;;9.82;8.93;;;;;;;29.18;40.59;100656.09;5039019;28;20041;-62
2022/08/14 11:02:28;;;;;;;9.70;8.80;;;;;;;29.33;38.95;100651.72;5047708;28;20060;-62
2022/08/14 11:05:17;;;;;;;10.88;9.90;;;;;;;29.43;37.93;100646.66;5041902;28;20057;-62
2022/08/14 11:07:54;;;;;;;9.63;8.68;;;;;;;29.59;39.88;100642.13;5046850;28;20100;-62
2022/08/14 11:10:22;;;;;;;9.07;8.20;;;;;;;29.66;36.96;100656.91;5045832;28;20535;-61
2022/08/14 11:12:50;;;;;;;10.55;9.23;;;;;;;29.66;36.51;100662.28;5024669;28;20489;-62
2022/08/14 11:15:21;;;;;;;11.15;9.60;;;;;;;29.72;37.43;100652.13;5037319;28;20028;-62
2022/08/14 11:17:49;;;;;;;9.80;8.88;;;;;;;29.79;37.79;100653.47;5046773;28;20025;-62
2022/08/14 11:20:17;;;;;;;9.50;8.50;;;;;;;29.89;35.70;100648.47;5030965;28;20039;-62
2022/08/14 11:22:43;;;;;;;8.82;7.90;;;;;;;29.98;36.15;100647.88;5049838;28;20491;-62
2022/08/14 11:25:13;;;;;;;8.98;8.07;;;;;;;30.05;36.66;100643.00;5047380;28;20021;-62
2022/08/14 11:27:42;;;;;;;9.02;7.97;;;;;;;30.15;36.31;100642.31;5046863;28;20500;-63
2022/08/14 11:30:14;;;;;;;8.70;7.85;;;;;;;30.26;35.51;100640.81;5040457;28;20362;-62
2022/08/14 11:32:43;;;;;;;9.15;8.25;;;;;;;30.35;34.52;100642.94;5049578;28;20048;-62